createdAt,value
2022-11-17T00:00:22.019Z,57.85
2022-11-17T00:02:48.682Z,69.43
2022-11-17T00:05:16.001Z,83.45
2022-11-17T00:07:43.431Z,58.60
2022-11-17T00:10:10.073Z,56.78
2022-11-17T00:12:55.227Z,53.80
2022-11-17T00:15:21.723Z,50.03
2022-11-17T00:18:10.988Z,62.78
2022-11-17T00:20:59.963Z,54.60
2022-11-17T00:23:47.146Z,60.97
2022-11-17T00:26:16.243Z,42.20
2022-11-17T00:28:42.609Z,52.30
2022-11-17T00:31:30.475Z,36.20
2022-11-17T00:34:06.546Z,41.30
2022-11-17T00:36:40.728Z,44.30
2022-11-17T00:39:08.856Z,39.03
2022-11-17T00:41:35.816Z,45.20
2022-11-17T00:44:02.496Z,39.42
2022-11-17T00:46:29.089Z,42.00
2022-11-17T00:48:55.695Z,34.88
2022-11-17T00:51:22.795Z,40.15
2022-11-17T00:53:49.553Z,39.22
2022-11-17T00:56:16.594Z,37.33
2022-11-17T00:58:43.248Z,34.30
2022-11-17T01:01:10.435Z,35.42
2022-11-17T01:03:37.967Z,36.15
2022-11-17T01:06:08.434Z,34.42
2022-11-17T01:08:35.638Z,29.20
2022-11-17T01:11:07.983Z,35.03
2022-11-17T01:13:34.866Z,42.72
2022-11-17T01:16:03.786Z,37.45
2022-11-17T01:18:30.210Z,35.70
2022-11-17T01:20:56.705Z,43.95
2022-11-17T01:23:23.232Z,28.77
2022-11-17T01:25:49.793Z,29.67
2022-11-17T01:28:16.269Z,32.08
2022-11-17T01:30:42.602Z,34.58
2022-11-17T01:33:09.100Z,33.45
2022-11-17T01:35:35.738Z,35.13
2022-11-17T01:38:02.242Z,41.50
2022-11-17T01:40:28.722Z,35.20
2022-11-17T01:42:55.210Z,36.22
2022-11-17T01:45:24.354Z,39.72
2022-11-17T01:48:00.756Z,48.30
2022-11-17T01:50:33.201Z,40.95
2022-11-17T01:53:02.665Z,31.35
2022-11-17T01:55:34.590Z,39.92
2022-11-17T01:58:08.708Z,40.08
2022-11-17T02:00:35.409Z,40.10
2022-11-17T02:03:02.383Z,34.95
2022-11-17T02:05:42.341Z,48.30
2022-11-17T02:08:10.132Z,43.50
2022-11-17T02:10:37.232Z,40.05
2022-11-17T02:13:04.594Z,52.93
2022-11-17T02:15:31.309Z,73.38
2022-11-17T02:17:58.846Z,35.10
2022-11-17T02:20:47.170Z,41.90
2022-11-17T02:23:48.847Z,58.08
2022-11-17T02:26:20.992Z,56.03
2022-11-17T02:29:08.484Z,52.65
2022-11-17T02:31:52.112Z,44.08
2022-11-17T02:34:46.623Z,53.40
2022-11-17T02:37:15.965Z,46.42
2022-11-17T02:40:12.966Z,57.03
2022-11-17T02:43:12.303Z,42.00
2022-11-17T02:45:47.477Z,43.08
2022-11-17T02:48:19.390Z,38.58
2022-11-17T02:50:48.782Z,54.85
2022-11-17T02:53:16.510Z,52.33
2022-11-17T02:55:50.259Z,49.38
2022-11-17T02:58:16.795Z,57.15
2022-11-17T03:01:10.741Z,43.88
2022-11-17T03:03:48.524Z,57.20
2022-11-17T03:06:36.470Z,65.03
2022-11-17T03:09:30.589Z,45.45
2022-11-17T03:12:13.545Z,47.53
2022-11-17T03:14:58.342Z,64.97
2022-11-17T03:17:32.637Z,50.30
2022-11-17T03:20:24.860Z,43.10
2022-11-17T03:23:06.064Z,43.95
2022-11-17T03:25:37.530Z,44.92
2022-11-17T03:28:08.390Z,46.05
2022-11-17T03:30:38.265Z,47.05
2022-11-17T03:33:11.678Z,37.83
2022-11-17T03:35:46.333Z,38.22
2022-11-17T03:38:18.450Z,39.00
2022-11-17T03:40:47.587Z,44.88
2022-11-17T03:43:17.402Z,42.72
2022-11-17T03:45:50.096Z,44.27
2022-11-17T03:48:39.193Z,39.80
2022-11-17T03:51:18.563Z,34.92
2022-11-17T03:53:46.749Z,34.20
2022-11-17T03:56:37.519Z,34.08
2022-11-17T03:59:12.679Z,34.67
2022-11-17T04:01:39.703Z,36.10
2022-11-17T04:04:06.158Z,35.58
2022-11-17T04:06:32.883Z,35.08
2022-11-17T04:08:59.214Z,33.15
2022-11-17T04:11:44.238Z,31.50
2022-11-17T04:14:29.119Z,33.85
2022-11-17T04:16:55.620Z,28.35
2022-11-17T04:19:22.156Z,28.42
2022-11-17T04:21:48.815Z,28.95
2022-11-17T04:24:15.184Z,27.73
2022-11-17T04:27:00.043Z,27.95
2022-11-17T04:29:26.598Z,26.73
2022-11-17T04:31:53.079Z,29.20
2022-11-17T04:34:19.390Z,26.67
2022-11-17T04:36:46.234Z,25.63
2022-11-17T04:39:14.887Z,28.38
2022-11-17T04:41:54.314Z,26.00
2022-11-17T04:44:23.453Z,26.40
2022-11-17T04:46:50.241Z,25.60
2022-11-17T04:49:18.851Z,23.90
2022-11-17T04:51:45.673Z,27.17
2022-11-17T04:54:14.836Z,25.58
2022-11-17T04:56:41.653Z,25.23
2022-11-17T04:59:08.537Z,30.35
2022-11-17T05:01:35.351Z,29.00
2022-11-17T05:04:04.607Z,26.38
2022-11-17T05:06:34.031Z,27.83
2022-11-17T05:09:04.426Z,27.75
2022-11-17T05:11:50.075Z,26.25
2022-11-17T05:14:19.663Z,27.60
2022-11-17T05:17:09.551Z,26.88
2022-11-17T05:19:40.727Z,27.00
2022-11-17T05:22:28.721Z,27.38
2022-11-17T05:24:56.007Z,23.08
2022-11-17T05:27:23.421Z,26.50
2022-11-17T05:29:49.935Z,26.05
2022-11-17T05:32:16.929Z,24.10
2022-11-17T05:34:43.387Z,24.65
2022-11-17T05:37:09.862Z,24.60
2022-11-17T05:39:36.733Z,22.07
2022-11-17T05:42:03.282Z,27.92
2022-11-17T05:44:29.802Z,32.78
2022-11-17T05:46:56.312Z,31.75
2022-11-17T05:49:22.790Z,29.90
2022-11-17T05:51:52.694Z,31.73
2022-11-17T05:54:19.601Z,25.45
2022-11-17T05:57:09.297Z,23.08
2022-11-17T05:59:44.264Z,23.50
2022-11-17T06:02:22.265Z,26.02
2022-11-17T06:04:50.345Z,24.07
2022-11-17T06:07:18.149Z,24.15
2022-11-17T06:09:46.029Z,24.08
2022-11-17T06:12:12.578Z,24.45
2022-11-17T06:14:39.933Z,24.02
2022-11-17T06:17:21.911Z,26.97
2022-11-17T06:19:57.939Z,26.42
2022-11-17T06:22:26.795Z,25.17
2022-11-17T06:24:54.236Z,24.58
2022-11-17T06:27:20.957Z,24.38
2022-11-17T06:29:48.326Z,24.23
2022-11-17T06:32:17.833Z,21.33
2022-11-17T06:34:51.948Z,19.15
2022-11-17T06:37:21.596Z,19.95
2022-11-17T06:39:48.090Z,20.75
2022-11-17T06:42:14.594Z,17.67
2022-11-17T06:44:41.083Z,19.70
2022-11-17T06:47:07.574Z,18.00
2022-11-17T06:49:33.874Z,17.90
2022-11-17T06:52:00.433Z,17.50
2022-11-17T06:54:27.027Z,18.07
2022-11-17T06:56:53.563Z,19.67
2022-11-17T06:59:19.952Z,20.50
2022-11-17T07:01:46.545Z,17.05
2022-11-17T07:04:13.219Z,18.85
2022-11-17T07:06:39.613Z,18.90
2022-11-17T07:09:06.122Z,18.92
2022-11-17T07:11:35.182Z,18.05
2022-11-17T07:14:01.531Z,17.80
2022-11-17T07:16:29.237Z,17.60
2022-11-17T07:18:55.680Z,17.13
2022-11-17T07:21:22.658Z,18.30
2022-11-17T07:23:49.011Z,17.80
2022-11-17T07:26:15.434Z,18.13
2022-11-17T07:28:41.849Z,19.33
2022-11-17T07:31:09.280Z,16.10
2022-11-17T07:33:36.426Z,19.83
2022-11-17T07:36:11.207Z,17.48
2022-11-17T07:38:40.100Z,16.48
2022-11-17T07:41:08.799Z,16.13
2022-11-17T07:43:36.449Z,16.93
2022-11-17T07:46:06.204Z,17.23
2022-11-17T07:48:33.200Z,16.75
2022-11-17T07:51:01.235Z,17.05
2022-11-17T07:53:28.070Z,17.63
2022-11-17T07:55:55.117Z,16.00
2022-11-17T07:58:21.786Z,18.90
2022-11-17T08:00:48.464Z,17.73
2022-11-17T08:03:15.178Z,16.92
2022-11-17T08:05:43.600Z,17.27
2022-11-17T08:08:10.499Z,16.33
2022-11-17T08:10:37.080Z,17.95
2022-11-17T08:13:04.022Z,17.55
2022-11-17T08:15:31.348Z,16.92
2022-11-17T08:17:59.896Z,17.38
2022-11-17T08:20:28.950Z,15.77
2022-11-17T08:22:56.076Z,15.05
2022-11-17T08:25:25.139Z,16.67
2022-11-17T08:27:54.997Z,15.15
2022-11-17T08:30:22.335Z,16.95
2022-11-17T08:32:51.716Z,15.57
2022-11-17T08:35:24.671Z,16.73
2022-11-17T08:37:51.866Z,15.75
2022-11-17T08:40:18.863Z,14.45
2022-11-17T08:42:46.163Z,13.05
2022-11-17T08:45:13.628Z,15.03
2022-11-17T08:47:40.269Z,15.35
2022-11-17T08:50:07.521Z,14.77
2022-11-17T08:52:34.530Z,13.90
2022-11-17T08:55:02.308Z,15.32
2022-11-17T08:57:32.546Z,14.77
2022-11-17T08:59:59.210Z,14.68
2022-11-17T09:02:26.463Z,12.70
2022-11-17T09:04:53.042Z,12.45
2022-11-17T09:07:19.957Z,13.05
2022-11-17T09:09:46.500Z,13.20
2022-11-17T09:12:13.066Z,13.95
2022-11-17T09:14:39.435Z,12.38
2022-11-17T09:17:05.863Z,12.85
2022-11-17T09:19:32.319Z,11.13
2022-11-17T09:21:59.612Z,12.83
2022-11-17T09:24:26.735Z,12.05
2022-11-17T09:26:54.785Z,12.07
2022-11-17T09:29:21.702Z,11.23
2022-11-17T09:31:48.243Z,18.45
2022-11-17T09:34:15.283Z,13.03
2022-11-17T09:36:42.222Z,15.25
2022-11-17T09:39:08.774Z,12.10
2022-11-17T09:41:46.101Z,10.68
2022-11-17T09:44:24.757Z,14.25
2022-11-17T09:46:58.292Z,11.47
2022-11-17T09:49:55.098Z,11.77
2022-11-17T09:52:35.881Z,17.08
2022-11-17T09:55:34.333Z,20.45
2022-11-17T09:58:07.229Z,12.60
2022-11-17T10:00:36.481Z,14.97
2022-11-17T10:03:09.910Z,11.98
2022-11-17T10:05:36.435Z,12.23
2022-11-17T10:08:16.381Z,15.60
2022-11-17T10:10:47.629Z,13.18
2022-11-17T10:13:27.920Z,14.03
2022-11-17T10:16:00.197Z,13.18
2022-11-17T10:18:31.480Z,14.05
2022-11-17T10:21:01.792Z,13.13
2022-11-17T10:23:38.780Z,13.07
2022-11-17T10:26:11.073Z,12.50
2022-11-17T10:28:37.818Z,14.43
2022-11-17T10:31:10.202Z,13.50
2022-11-17T10:33:44.156Z,12.85
2022-11-17T10:36:19.951Z,14.18
2022-11-17T10:38:52.067Z,13.67
2022-11-17T10:41:36.454Z,13.75
2022-11-17T10:44:06.086Z,13.20
2022-11-17T10:46:43.193Z,12.45
2022-11-17T10:49:25.300Z,13.13
2022-11-17T10:52:17.991Z,13.33
2022-11-17T10:54:44.829Z,13.60
2022-11-17T10:57:22.564Z,11.75
2022-11-17T10:59:56.871Z,11.95
2022-11-17T11:02:30.605Z,13.88
2022-11-17T11:05:14.916Z,12.80
2022-11-17T11:07:42.145Z,21.17
2022-11-17T11:10:37.445Z,13.65
2022-11-17T11:13:19.268Z,13.55
2022-11-17T11:15:46.360Z,15.82
2022-11-17T11:18:15.491Z,13.63
2022-11-17T11:21:22.184Z,12.63
2022-11-17T11:24:19.539Z,10.15
2022-11-17T11:27:16.003Z,9.70
2022-11-17T11:30:00.490Z,8.85
2022-11-17T11:33:04.556Z,9.93
2022-11-17T11:35:40.775Z,8.88
2022-11-17T11:38:46.988Z,9.35
2022-11-17T11:41:22.942Z,11.25
2022-11-17T11:44:07.872Z,12.07
2022-11-17T11:46:52.432Z,12.07
2022-11-17T11:49:37.836Z,10.68
2022-11-17T11:52:10.469Z,15.50
2022-11-17T11:54:51.349Z,8.70
2022-11-17T11:57:25.616Z,19.67
2022-11-17T12:00:04.984Z,13.33
2022-11-17T12:02:42.547Z,15.18
2022-11-17T12:05:29.283Z,10.45
2022-11-17T12:08:02.587Z,10.68
2022-11-17T12:10:58.656Z,9.60
2022-11-17T12:13:26.050Z,9.23
2022-11-17T12:16:19.416Z,10.95
2022-11-17T12:18:45.866Z,6.70
2022-11-17T12:21:13.731Z,7.05
2022-11-17T12:23:49.427Z,7.38
2022-11-17T12:26:27.752Z,8.00
2022-11-17T12:29:22.265Z,101.53
2022-11-17T12:32:00.371Z,12.02
2022-11-17T12:34:36.890Z,6.30
2022-11-17T12:37:13.240Z,6.97
2022-11-17T12:40:06.497Z,5.97
2022-11-17T12:42:34.234Z,5.53
2022-11-17T12:45:08.750Z,4.43
2022-11-17T12:48:04.838Z,3.85
2022-11-17T12:50:53.867Z,4.28
2022-11-17T12:53:29.250Z,6.27
2022-11-17T12:56:14.285Z,4.65
2022-11-17T12:59:18.944Z,4.35
2022-11-17T13:02:03.905Z,4.32
2022-11-17T13:04:43.834Z,4.43
2022-11-17T13:07:25.871Z,3.77
2022-11-17T13:09:57.582Z,3.90
2022-11-17T13:12:27.329Z,4.63
2022-11-17T13:14:55.903Z,3.58
2022-11-17T13:17:32.943Z,4.50
2022-11-17T13:20:20.691Z,4.47
2022-11-17T13:23:13.252Z,4.82
2022-11-17T13:25:39.943Z,3.92
2022-11-17T13:28:06.568Z,5.70
2022-11-17T13:30:33.147Z,5.13
2022-11-17T13:33:02.340Z,4.80
2022-11-17T13:35:36.035Z,6.53
2022-11-17T13:38:11.454Z,6.22
2022-11-17T13:40:41.148Z,3.92
2022-11-17T13:43:12.757Z,3.78
2022-11-17T13:45:40.511Z,4.27
2022-11-17T13:48:06.910Z,5.88
2022-11-17T13:50:37.029Z,6.45
2022-11-17T13:53:23.152Z,5.93
2022-11-17T13:55:49.822Z,4.05
2022-11-17T13:58:40.102Z,5.67
2022-11-17T14:01:11.053Z,7.32
2022-11-17T14:03:39.946Z,5.00
2022-11-17T14:06:09.645Z,4.07
2022-11-17T14:08:37.949Z,4.38
2022-11-17T14:11:07.586Z,5.10
2022-11-17T14:13:51.083Z,4.68
2022-11-17T14:16:38.272Z,6.18
2022-11-17T14:19:24.355Z,3.30
2022-11-17T14:22:27.701Z,5.30
2022-11-17T14:24:57.739Z,5.17
2022-11-17T14:27:26.948Z,4.72
2022-11-17T14:29:53.444Z,14.10
2022-11-17T14:32:19.782Z,6.97
2022-11-17T14:34:46.220Z,5.00
2022-11-17T14:37:12.681Z,7.07
2022-11-17T14:39:38.972Z,8.68
2022-11-17T14:42:05.348Z,54.08
2022-11-17T14:44:31.778Z,12.45
2022-11-17T14:46:58.366Z,22.27
2022-11-17T14:49:25.329Z,27.40
2022-11-17T14:51:53.264Z,13.60
2022-11-17T14:54:19.801Z,9.85
2022-11-17T14:56:46.203Z,6.53
2022-11-17T14:59:13.404Z,8.13
2022-11-17T15:01:41.627Z,10.77
2022-11-17T15:04:34.499Z,14.65
2022-11-17T15:06:54.678Z,10.88
2022-11-17T15:09:21.463Z,8.57
2022-11-17T15:11:48.152Z,7.93
2022-11-17T15:14:14.902Z,7.90
2022-11-17T15:16:41.539Z,6.43
2022-11-17T15:19:08.233Z,7.93
2022-11-17T15:21:34.830Z,8.30
2022-11-17T15:24:03.293Z,4.47
2022-11-17T15:26:29.675Z,7.07
2022-11-17T15:28:57.879Z,5.40
2022-11-17T15:31:24.410Z,6.57
2022-11-17T15:33:51.018Z,6.45
2022-11-17T15:36:20.052Z,8.18
2022-11-17T15:38:47.970Z,6.67
2022-11-17T15:41:15.752Z,4.85
2022-11-17T15:43:44.086Z,7.70
2022-11-17T15:46:15.862Z,5.63
2022-11-17T15:48:44.664Z,8.25
2022-11-17T15:51:17.071Z,7.93
2022-11-17T15:53:45.494Z,7.82
2022-11-17T15:56:17.707Z,7.18
2022-11-17T15:58:45.214Z,7.35
2022-11-17T16:01:23.957Z,9.25
2022-11-17T16:03:51.669Z,9.90
2022-11-17T16:06:19.023Z,12.93
2022-11-17T16:08:45.405Z,13.60
2022-11-17T16:11:11.782Z,10.48
2022-11-17T16:13:38.495Z,10.55
2022-11-17T16:16:05.406Z,12.20
2022-11-17T16:18:35.132Z,11.57
2022-11-17T16:21:04.808Z,10.82
2022-11-17T16:23:37.403Z,9.75
2022-11-17T16:26:03.979Z,9.85
2022-11-17T16:28:30.358Z,8.70
2022-11-17T16:30:56.878Z,7.55
2022-11-17T16:33:23.373Z,8.30
2022-11-17T16:35:49.801Z,7.50
2022-11-17T16:38:17.770Z,9.20
2022-11-17T16:40:44.154Z,8.37
2022-11-17T16:43:13.024Z,8.38
2022-11-17T16:45:45.047Z,8.98
2022-11-17T16:48:12.528Z,7.22
2022-11-17T16:50:40.840Z,8.63
2022-11-17T16:53:07.546Z,6.97
2022-11-17T16:55:35.371Z,7.78
2022-11-17T16:58:03.430Z,10.18
2022-11-17T17:00:30.075Z,5.93
2022-11-17T17:02:57.236Z,9.55
2022-11-17T17:05:25.149Z,7.10
2022-11-17T17:07:51.648Z,7.63
2022-11-17T17:10:18.054Z,7.78
2022-11-17T17:12:44.619Z,12.48
2022-11-17T17:15:11.211Z,9.05
2022-11-17T17:17:38.366Z,14.13
2022-11-17T17:20:05.674Z,17.65
2022-11-17T17:22:32.833Z,18.55
2022-11-17T17:24:59.236Z,19.88
2022-11-17T17:27:25.551Z,17.95
2022-11-17T17:29:56.710Z,16.13
2022-11-17T17:32:23.319Z,17.58
2022-11-17T17:34:50.062Z,17.58
2022-11-17T17:37:16.842Z,16.88
2022-11-17T17:39:43.382Z,20.17
2022-11-17T17:42:09.912Z,18.50
2022-11-17T17:44:36.540Z,21.42
2022-11-17T17:47:03.156Z,20.45
2022-11-17T17:49:29.519Z,19.67
2022-11-17T17:51:55.851Z,31.00
2022-11-17T17:54:24.163Z,33.80
2022-11-17T17:56:50.555Z,32.97
2022-11-17T17:59:18.110Z,28.90
2022-11-17T18:01:47.348Z,25.38
2022-11-17T18:04:16.227Z,19.20
2022-11-17T18:06:46.291Z,19.37
2022-11-17T18:09:14.537Z,21.42
2022-11-17T18:11:47.759Z,21.05
2022-11-17T18:14:14.280Z,21.38
2022-11-17T18:16:41.269Z,21.08
2022-11-17T18:19:09.090Z,24.33
2022-11-17T18:21:36.325Z,29.60
2022-11-17T18:24:03.639Z,26.33
2022-11-17T18:26:33.177Z,30.67
2022-11-17T18:29:13.403Z,30.10
2022-11-17T18:31:40.175Z,30.80
2022-11-17T18:34:13.403Z,25.88
2022-11-17T18:36:40.259Z,22.52
2022-11-17T18:39:06.878Z,23.13
2022-11-17T18:41:33.954Z,25.67
2022-11-17T18:44:00.893Z,25.17
2022-11-17T18:46:30.024Z,23.20
2022-11-17T18:48:56.891Z,21.98
2022-11-17T18:51:26.488Z,28.95
2022-11-17T18:53:54.470Z,24.00
2022-11-17T18:56:23.209Z,24.77
2022-11-17T18:58:50.171Z,26.63
2022-11-17T19:01:25.428Z,26.52
2022-11-17T19:03:53.774Z,23.08
2022-11-17T19:06:22.680Z,29.92
2022-11-17T19:08:49.889Z,28.40
2022-11-17T19:11:18.214Z,18.10
2022-11-17T19:16:44.549Z,20.88
2022-11-17T19:19:13.653Z,23.67
2022-11-17T19:21:40.694Z,19.93
2022-11-17T19:24:07.810Z,20.85
2022-11-17T19:26:36.203Z,19.95
2022-11-17T19:29:07.813Z,18.98
2022-11-17T19:31:37.854Z,21.50
2022-11-17T19:34:04.405Z,22.53
2022-11-17T19:36:33.594Z,24.73
2022-11-17T19:39:01.575Z,21.67
2022-11-17T19:41:31.142Z,18.73
2022-11-17T19:44:00.267Z,23.80
2022-11-17T19:46:28.508Z,17.40
2022-11-17T19:48:56.437Z,24.98
2022-11-17T19:51:25.925Z,24.75
2022-11-17T19:53:54.996Z,18.65
2022-11-17T19:56:22.640Z,19.85
2022-11-17T19:58:49.870Z,19.70
2022-11-17T20:01:27.847Z,19.92
2022-11-17T20:03:55.787Z,19.83
2022-11-17T20:06:24.546Z,24.83
2022-11-17T20:08:51.385Z,23.90
2022-11-17T20:11:21.421Z,25.97
2022-11-17T20:13:48.229Z,22.20
2022-11-17T20:16:18.679Z,26.13
2022-11-17T20:18:50.067Z,28.83
2022-11-17T20:21:16.790Z,26.48
2022-11-17T20:23:43.715Z,26.40
2022-11-17T20:26:16.250Z,27.73
2022-11-17T20:28:43.094Z,33.17
2022-11-17T20:31:12.381Z,29.27
2022-11-17T20:33:39.879Z,34.65
2022-11-17T20:36:08.187Z,38.77
2022-11-17T20:38:36.097Z,43.45
2022-11-17T20:41:03.948Z,37.72
2022-11-17T20:43:30.647Z,45.30
2022-11-17T20:45:57.989Z,36.50
2022-11-17T20:48:25.835Z,35.87
2022-11-17T20:51:10.975Z,33.60
2022-11-17T20:53:37.839Z,23.85
2022-11-17T20:56:07.079Z,26.67
2022-11-17T20:58:34.291Z,20.42
2022-11-17T21:01:15.661Z,21.03
2022-11-17T21:03:43.484Z,29.13
2022-11-17T21:06:10.306Z,29.45
2022-11-17T21:08:38.928Z,29.10
2022-11-17T21:11:08.286Z,26.52
2022-11-17T21:13:36.123Z,25.23
2022-11-17T21:16:05.550Z,16.05
2022-11-17T21:18:32.898Z,13.82
2022-11-17T21:21:00.206Z,18.05
2022-11-17T21:23:28.099Z,18.23
2022-11-17T21:25:54.873Z,13.47
2022-11-17T21:28:21.782Z,12.68
2022-11-17T21:30:48.364Z,12.05
2022-11-17T21:33:14.920Z,8.38
2022-11-17T21:35:41.522Z,8.07
2022-11-17T21:38:09.029Z,11.50
2022-11-17T21:40:35.399Z,10.43
2022-11-17T21:43:01.849Z,8.45
2022-11-17T21:45:28.503Z,7.05
2022-11-17T21:47:59.236Z,6.03
2022-11-17T21:50:26.203Z,6.97
2022-11-17T21:52:52.610Z,5.97
2022-11-17T21:55:19.224Z,5.18
2022-11-17T21:57:45.559Z,4.47
2022-11-17T22:00:12.426Z,3.25
2022-11-17T22:02:38.945Z,3.93
2022-11-17T22:05:05.774Z,3.35
2022-11-17T22:07:32.183Z,4.30
2022-11-17T22:09:58.810Z,3.00
2022-11-17T22:12:25.367Z,2.78
2022-11-17T22:14:51.967Z,4.63
2022-11-17T22:17:18.568Z,2.83
2022-11-17T22:19:44.949Z,4.25
2022-11-17T22:22:11.453Z,3.50
2022-11-17T22:24:39.853Z,3.08
2022-11-17T22:27:06.764Z,3.43
2022-11-17T22:29:33.408Z,3.20
2022-11-17T22:31:59.795Z,2.55
2022-11-17T22:34:26.438Z,4.00
2022-11-17T22:36:53.022Z,6.45
2022-11-17T22:39:19.884Z,7.90
2022-11-17T22:41:46.643Z,3.53
2022-11-17T22:44:15.064Z,4.65
2022-11-17T22:46:43.284Z,10.70
2022-11-17T22:49:10.522Z,4.18
2022-11-17T22:51:55.420Z,3.40
2022-11-17T22:54:21.966Z,2.45
2022-11-17T22:56:48.779Z,2.15
2022-11-17T22:59:15.529Z,3.28
2022-11-17T23:01:42.287Z,2.35
2022-11-17T23:04:08.902Z,3.40
2022-11-17T23:06:37.683Z,2.53
2022-11-17T23:09:04.070Z,3.25
2022-11-17T23:11:36.994Z,3.47
2022-11-17T23:14:07.246Z,3.70
2022-11-17T23:16:33.929Z,28.70
2022-11-17T23:19:00.582Z,15.00
2022-11-17T23:21:27.266Z,10.10
2022-11-17T23:23:53.705Z,5.50
2022-11-17T23:26:20.903Z,2.90
2022-11-17T23:28:47.306Z,1.77
2022-11-17T23:31:16.090Z,2.72
2022-11-17T23:33:44.868Z,3.65
2022-11-17T23:36:14.380Z,3.75
2022-11-17T23:38:40.963Z,2.25
2022-11-17T23:41:10.324Z,4.47
2022-11-17T23:43:36.926Z,2.90
2022-11-17T23:46:06.010Z,2.72
2022-11-17T23:48:32.598Z,2.58
2022-11-17T23:51:03.606Z,3.97
2022-11-17T23:53:30.092Z,2.77
2022-11-17T23:55:57.760Z,3.63
2022-11-17T23:58:24.393Z,2.67
